createdAt,value
2019-04-04T00:01:23.323Z,7.03
2019-04-04T00:03:51.852Z,5.90
2019-04-04T00:06:18.182Z,6.50
2019-04-04T00:08:45.610Z,6.00
2019-04-04T00:11:13.022Z,6.53
2019-04-04T00:13:41.997Z,7.33
2019-04-04T00:16:07.872Z,5.27
2019-04-04T00:18:35.277Z,6.63
2019-04-04T00:21:03.218Z,6.80
2019-04-04T00:23:30.221Z,7.20
2019-04-04T00:25:57.626Z,6.13
2019-04-04T00:28:25.037Z,6.27
2019-04-04T00:30:52.449Z,5.40
2019-04-04T00:33:19.859Z,7.10
2019-04-04T00:35:47.307Z,6.40
2019-04-04T00:38:14.733Z,6.00
2019-04-04T00:40:42.507Z,5.70
2019-04-04T00:43:09.562Z,6.17
2019-04-04T00:45:36.998Z,5.23
2019-04-04T00:48:04.413Z,7.27
2019-04-04T00:50:31.856Z,5.40
2019-04-04T00:52:59.282Z,5.47
2019-04-04T00:55:26.719Z,6.50
2019-04-04T00:57:54.122Z,5.63
2019-04-04T01:00:22.062Z,4.93
2019-04-04T01:02:49.018Z,5.53
2019-04-04T01:05:16.418Z,5.70
2019-04-04T01:07:43.851Z,4.97
2019-04-04T01:10:11.291Z,6.83
2019-04-04T01:12:38.721Z,6.10
2019-04-04T01:15:06.126Z,6.67
2019-04-04T01:17:35.065Z,4.97
2019-04-04T01:20:00.990Z,5.60
2019-04-04T01:22:28.425Z,6.53
2019-04-04T01:24:55.843Z,5.20
2019-04-04T01:27:23.280Z,5.53
2019-04-04T01:29:50.684Z,5.93
2019-04-04T01:32:18.099Z,5.80
2019-04-04T01:34:45.528Z,6.60
2019-04-04T01:37:12.953Z,5.03
2019-04-04T01:39:40.377Z,4.80
2019-04-04T01:42:07.884Z,5.77
2019-04-04T01:44:35.231Z,8.03
2019-04-04T01:47:02.643Z,4.93
2019-04-04T01:49:30.077Z,5.30
2019-04-04T01:51:57.959Z,5.60
2019-04-04T01:54:24.918Z,5.53
2019-04-04T01:56:52.322Z,4.23
2019-04-04T01:59:19.754Z,5.10
2019-04-04T02:01:47.417Z,6.27
2019-04-04T02:04:14.602Z,4.40
2019-04-04T02:06:42.010Z,6.80
2019-04-04T02:09:09.457Z,5.17
2019-04-04T02:11:37.545Z,4.67
2019-04-04T02:14:04.279Z,5.40
2019-04-04T02:16:31.704Z,5.97
2019-04-04T02:18:59.111Z,4.80
2019-04-04T02:21:28.453Z,4.90
2019-04-04T02:23:53.965Z,4.60
2019-04-04T02:26:21.374Z,7.03
2019-04-04T02:28:48.784Z,7.07
2019-04-04T02:31:20.548Z,4.73
2019-04-04T02:33:43.655Z,5.77
2019-04-04T02:36:11.079Z,5.57
2019-04-04T02:38:38.507Z,5.00
2019-04-04T02:41:05.969Z,6.73
2019-04-04T02:43:33.377Z,4.50
2019-04-04T02:46:00.825Z,4.53
2019-04-04T02:48:28.239Z,5.20
2019-04-04T02:50:55.659Z,5.57
2019-04-04T02:53:23.105Z,6.33
2019-04-04T02:55:50.510Z,5.40
2019-04-04T02:58:17.951Z,6.07
2019-04-04T03:00:45.361Z,6.50
2019-04-04T03:03:12.768Z,4.97
2019-04-04T03:05:40.209Z,4.90
2019-04-04T03:08:07.622Z,6.97
2019-04-04T03:10:35.046Z,8.97
2019-04-04T03:13:02.451Z,5.83
2019-04-04T03:15:29.891Z,6.67
2019-04-04T03:17:57.302Z,6.63
2019-04-04T03:20:24.706Z,6.30
2019-04-04T03:22:52.136Z,6.60
2019-04-04T03:25:19.572Z,7.30
2019-04-04T03:27:47.001Z,6.37
2019-04-04T03:30:17.337Z,7.73
2019-04-04T03:32:42.903Z,6.20
2019-04-04T03:35:10.326Z,6.43
2019-04-04T03:37:40.477Z,6.33
2019-04-04T03:40:05.151Z,6.73
2019-04-04T03:42:32.568Z,8.23
2019-04-04T03:44:59.966Z,7.63
2019-04-04T03:47:27.400Z,7.80
2019-04-04T03:49:57.719Z,6.57
2019-04-04T03:52:22.247Z,7.93
2019-04-04T03:54:49.668Z,7.33
2019-04-04T03:57:17.101Z,7.97
2019-04-04T03:59:44.559Z,6.97
2019-04-04T04:02:11.947Z,9.07
2019-04-04T04:04:39.373Z,8.37
2019-04-04T04:07:06.791Z,10.13
2019-04-04T04:09:34.206Z,6.73
2019-04-04T04:12:01.620Z,9.27
2019-04-04T04:14:29.050Z,9.23
2019-04-04T04:16:56.479Z,9.60
2019-04-04T04:19:24.618Z,7.13
2019-04-04T04:21:51.318Z,8.50
2019-04-04T04:24:18.725Z,7.37
2019-04-04T04:26:46.164Z,8.83
2019-04-04T04:29:13.578Z,7.87
2019-04-04T04:31:40.987Z,7.43
2019-04-04T04:34:08.417Z,7.33
2019-04-04T04:36:35.834Z,10.13
2019-04-04T04:39:03.548Z,7.43
2019-04-04T04:41:30.968Z,8.60
2019-04-04T04:43:58.396Z,8.20
2019-04-04T04:46:25.832Z,9.80
2019-04-04T04:48:53.251Z,6.23
2019-04-04T04:51:20.703Z,10.93
2019-04-04T04:53:48.245Z,12.57
2019-04-04T04:56:17.523Z,11.67
2019-04-04T04:58:42.973Z,17.50
2019-04-04T05:01:10.419Z,11.93
2019-04-04T05:03:37.853Z,11.40
2019-04-04T05:06:05.257Z,10.47
2019-04-04T05:08:32.669Z,9.07
2019-04-04T05:11:00.099Z,8.50
2019-04-04T05:13:28.889Z,9.07
2019-04-04T05:15:54.948Z,12.57
2019-04-04T05:18:22.393Z,10.37
2019-04-04T05:20:49.776Z,11.13
2019-04-04T05:23:17.232Z,17.37
2019-04-04T05:25:53.365Z,13.77
2019-04-04T05:28:12.052Z,9.57
2019-04-04T05:30:39.479Z,9.30
2019-04-04T05:33:06.887Z,12.67
2019-04-04T05:35:34.329Z,7.50
2019-04-04T05:38:01.741Z,11.37
2019-04-04T05:40:30.665Z,15.57
2019-04-04T05:42:56.599Z,7.93
2019-04-04T05:45:24.040Z,14.77
2019-04-04T05:47:54.935Z,11.73
2019-04-04T05:50:18.866Z,13.53
2019-04-04T05:52:46.311Z,12.40
2019-04-04T05:55:13.765Z,10.03
2019-04-04T05:57:41.173Z,10.57
2019-04-04T06:00:08.595Z,11.47
2019-04-04T06:02:36.022Z,11.77
2019-04-04T06:05:03.471Z,10.77
2019-04-04T06:07:30.881Z,12.30
2019-04-04T06:09:58.305Z,9.70
2019-04-04T06:12:25.801Z,9.83
2019-04-04T06:14:53.155Z,13.50
2019-04-04T06:17:20.591Z,11.63
2019-04-04T06:19:48.039Z,8.27
2019-04-04T06:22:15.447Z,11.10
2019-04-04T06:24:42.849Z,9.33
2019-04-04T06:27:10.288Z,12.23
2019-04-04T06:29:37.726Z,10.63
2019-04-04T06:32:05.182Z,13.60
2019-04-04T06:34:32.594Z,9.43
2019-04-04T06:37:00.058Z,12.50
2019-04-04T06:39:27.480Z,11.10
2019-04-04T06:41:54.946Z,8.93
2019-04-04T06:44:22.401Z,16.93
2019-04-04T06:46:51.333Z,13.27
2019-04-04T06:49:17.241Z,10.20
2019-04-04T06:51:46.611Z,9.07
2019-04-04T06:54:12.099Z,10.67
2019-04-04T06:56:39.527Z,9.07
2019-04-04T06:59:06.975Z,14.23
2019-04-04T07:01:34.398Z,8.30
2019-04-04T07:04:01.817Z,8.27
2019-04-04T07:06:29.256Z,9.30
2019-04-04T07:08:56.676Z,12.67
2019-04-04T07:11:24.082Z,10.37
2019-04-04T07:13:51.514Z,14.97
2019-04-04T07:16:18.975Z,12.07
2019-04-04T07:18:46.381Z,10.67
2019-04-04T07:21:13.828Z,13.67
2019-04-04T07:23:42.007Z,9.27
2019-04-04T07:26:09.595Z,6.60
2019-04-04T07:28:36.107Z,8.70
2019-04-04T07:31:03.540Z,8.57
2019-04-04T07:33:30.957Z,12.40
2019-04-04T07:35:58.371Z,8.57
2019-04-04T07:38:26.631Z,12.93
2019-04-04T07:40:53.218Z,9.80
2019-04-04T07:43:20.652Z,9.87
2019-04-04T07:45:48.079Z,9.07
2019-04-04T07:48:17.641Z,9.80
2019-04-04T07:50:42.884Z,8.77
2019-04-04T07:53:10.312Z,7.13
2019-04-04T07:55:37.718Z,8.03
2019-04-04T07:58:05.149Z,8.23
2019-04-04T08:00:32.559Z,6.30
2019-04-04T08:02:59.987Z,7.77
2019-04-04T08:05:27.409Z,11.50
2019-04-04T08:07:54.891Z,9.03
2019-04-04T08:10:22.334Z,7.27
2019-04-04T08:12:49.742Z,10.53
2019-04-04T08:15:17.150Z,8.03
2019-04-04T08:17:44.684Z,9.50
2019-04-04T08:20:12.091Z,7.27
2019-04-04T08:22:39.879Z,7.17
2019-04-04T08:25:06.946Z,12.10
2019-04-04T08:27:34.343Z,8.83
2019-04-04T08:30:01.772Z,7.37
2019-04-04T08:32:29.191Z,10.17
2019-04-04T08:34:56.593Z,8.43
2019-04-04T08:37:24.029Z,10.47
2019-04-04T08:39:51.463Z,12.07
2019-04-04T08:42:18.878Z,9.40
2019-04-04T08:44:46.293Z,10.43
2019-04-04T08:47:13.724Z,8.73
2019-04-04T08:49:41.144Z,7.93
2019-04-04T08:52:16.629Z,13.10
2019-04-04T08:54:36.014Z,8.70
2019-04-04T08:57:03.414Z,6.93
2019-04-04T08:59:30.820Z,7.07
2019-04-04T09:01:58.250Z,9.03
2019-04-04T09:04:25.661Z,9.37
2019-04-04T09:06:53.097Z,17.47
2019-04-04T09:09:20.529Z,6.90
2019-04-04T09:11:47.983Z,6.80
2019-04-04T09:14:15.401Z,6.73
2019-04-04T09:16:42.829Z,6.03
2019-04-04T09:19:10.297Z,5.77
2019-04-04T09:21:37.736Z,6.53
2019-04-04T09:24:05.142Z,8.83
2019-04-04T09:26:32.575Z,7.17
2019-04-04T09:28:59.972Z,5.77
2019-04-04T09:31:27.404Z,5.60
2019-04-04T09:33:54.828Z,6.20
2019-04-04T09:36:22.214Z,5.63
2019-04-04T09:38:49.647Z,5.53
2019-04-04T09:41:17.067Z,6.10
2019-04-04T09:43:44.492Z,11.53
2019-04-04T09:46:11.907Z,6.10
2019-04-04T09:48:39.335Z,6.13
2019-04-04T09:51:06.734Z,6.03
2019-04-04T09:53:34.259Z,6.20
2019-04-04T09:56:01.667Z,7.80
2019-04-04T09:58:29.078Z,6.70
2019-04-04T10:00:56.516Z,7.53
2019-04-04T10:03:23.932Z,9.00
2019-04-04T10:05:51.399Z,5.90
2019-04-04T10:08:18.760Z,8.50
2019-04-04T10:10:46.195Z,5.97
2019-04-04T10:13:13.606Z,8.40
2019-04-04T10:15:41.023Z,7.97
2019-04-04T10:18:08.473Z,7.43
2019-04-04T10:20:35.903Z,6.20
2019-04-04T10:23:58.784Z,5.93
2019-04-04T10:26:26.239Z,6.47
2019-04-04T10:28:53.703Z,7.53
2019-04-04T10:31:21.132Z,6.40
2019-04-04T10:33:48.585Z,8.67
2019-04-04T10:36:16.014Z,7.10
2019-04-04T10:38:43.460Z,8.60
2019-04-04T10:41:10.862Z,6.17
2019-04-04T10:43:38.300Z,7.97
2019-04-04T10:46:05.718Z,6.53
2019-04-04T10:48:33.123Z,5.93
2019-04-04T10:51:00.547Z,8.73
2019-04-04T10:53:27.956Z,6.20
2019-04-04T10:55:55.377Z,6.83
2019-04-04T10:58:22.777Z,8.67
2019-04-04T11:00:50.207Z,6.33
2019-04-04T11:03:17.637Z,6.73
2019-04-04T11:05:45.034Z,5.93
2019-04-04T11:08:12.442Z,5.70
2019-04-04T11:10:39.870Z,7.10
2019-04-04T11:13:07.279Z,5.70
2019-04-04T11:15:34.714Z,7.10
2019-04-04T11:18:02.133Z,7.77
2019-04-04T11:20:29.557Z,5.53
2019-04-04T11:22:56.982Z,5.17
2019-04-04T11:25:24.404Z,5.57
2019-04-04T11:27:51.802Z,8.90
2019-04-04T11:30:19.243Z,5.57
2019-04-04T11:32:48.857Z,5.50
2019-04-04T11:35:14.238Z,6.77
2019-04-04T11:37:41.467Z,7.27
2019-04-04T11:40:08.926Z,5.27
2019-04-04T11:42:36.330Z,5.47
2019-04-04T11:45:03.754Z,6.07
2019-04-04T11:47:31.178Z,6.10
2019-04-04T11:49:58.614Z,5.50
2019-04-04T11:52:26.015Z,5.37
2019-04-04T11:54:56.000Z,4.80
2019-04-04T11:57:23.989Z,7.60
2019-04-04T11:59:50.871Z,6.23
2019-04-04T12:02:18.283Z,5.67
2019-04-04T12:04:45.693Z,7.83
2019-04-04T12:07:13.131Z,9.83
2019-04-04T12:09:40.524Z,5.33
2019-04-04T12:12:07.933Z,7.17
2019-04-04T12:14:35.370Z,6.40
2019-04-04T12:17:02.773Z,6.83
2019-04-04T12:19:30.167Z,4.97
2019-04-04T12:21:57.597Z,8.23
2019-04-04T12:24:25.004Z,5.73
2019-04-04T12:26:52.427Z,6.10
2019-04-04T12:29:19.831Z,8.03
2019-04-04T12:31:47.253Z,5.70
2019-04-04T12:34:14.663Z,5.97
2019-04-04T12:36:42.093Z,6.07
2019-04-04T12:39:09.545Z,6.37
2019-04-04T12:41:36.974Z,5.77
2019-04-04T12:44:04.379Z,6.47
2019-04-04T12:46:31.816Z,5.33
2019-04-04T12:48:59.219Z,7.53
2019-04-04T12:51:26.647Z,5.13
2019-04-04T12:53:54.058Z,5.90
2019-04-04T12:56:21.481Z,7.50
2019-04-04T12:58:48.884Z,5.93
2019-04-04T13:01:16.319Z,5.97
2019-04-04T13:03:43.739Z,6.60
2019-04-04T13:06:11.136Z,5.57
2019-04-04T13:08:38.563Z,5.70
2019-04-04T13:11:05.994Z,6.90
2019-04-04T13:13:33.419Z,5.10
2019-04-04T13:16:00.874Z,7.70
2019-04-04T13:18:28.274Z,4.27
2019-04-04T13:20:55.672Z,5.07
2019-04-04T13:23:23.108Z,5.27
2019-04-04T13:25:50.523Z,6.03
2019-04-04T13:28:17.946Z,6.87
2019-04-04T13:30:45.452Z,7.13
2019-04-04T13:33:12.884Z,13.70
2019-04-04T13:35:40.321Z,5.07
2019-04-04T13:38:07.738Z,5.73
2019-04-04T13:40:44.836Z,4.97
2019-04-04T13:43:02.564Z,6.43
2019-04-04T13:45:29.989Z,5.10
2019-04-04T13:47:57.427Z,5.40
2019-04-04T13:50:24.844Z,5.10
2019-04-04T13:52:52.278Z,6.77
2019-04-04T13:55:19.693Z,6.87
2019-04-04T13:57:47.693Z,6.67
2019-04-04T14:00:14.559Z,5.33
2019-04-04T14:02:41.977Z,12.03
2019-04-04T14:05:11.487Z,6.33
2019-04-04T14:07:36.859Z,6.30
2019-04-04T14:10:04.269Z,5.40
2019-04-04T14:12:31.692Z,7.00
2019-04-04T14:14:59.133Z,5.17
2019-04-04T14:17:26.540Z,5.87
2019-04-04T14:19:53.978Z,6.10
2019-04-04T14:22:21.400Z,4.90
2019-04-04T14:24:48.824Z,6.43
2019-04-04T14:27:16.443Z,5.57
2019-04-04T14:29:43.676Z,5.53
2019-04-04T14:32:11.103Z,6.20
2019-04-04T14:34:38.537Z,7.33
2019-04-04T14:37:05.962Z,4.57
2019-04-04T14:39:33.369Z,6.07
2019-04-04T14:42:00.818Z,5.77
2019-04-04T14:44:30.247Z,4.90
2019-04-04T14:46:55.632Z,4.57
2019-04-04T14:49:23.067Z,5.10
2019-04-04T14:51:50.479Z,4.63
2019-04-04T14:54:17.932Z,4.57
2019-04-04T14:56:45.329Z,4.40
2019-04-04T14:59:12.746Z,4.50
2019-04-04T15:01:40.181Z,7.40
2019-04-04T15:04:07.613Z,4.80
2019-04-04T15:06:35.039Z,5.60
2019-04-04T15:09:02.486Z,4.43
2019-04-04T15:11:29.919Z,5.67
2019-04-04T15:13:57.329Z,13.27
2019-04-04T15:16:24.747Z,6.07
2019-04-04T15:18:52.180Z,5.37
2019-04-04T15:21:19.602Z,4.97
2019-04-04T15:23:47.032Z,5.00
2019-04-04T15:26:14.432Z,5.43
2019-04-04T15:28:41.851Z,5.00
2019-04-04T15:31:09.275Z,6.40
2019-04-04T15:33:36.682Z,14.87
2019-04-04T15:36:04.113Z,5.20
2019-04-04T15:38:31.519Z,4.83
2019-04-04T15:40:58.984Z,6.67
2019-04-04T15:43:26.444Z,5.43
2019-04-04T15:45:53.840Z,6.50
2019-04-04T15:48:21.251Z,6.67
2019-04-04T15:50:48.721Z,5.50
2019-04-04T15:53:16.157Z,8.07
2019-04-04T15:55:43.900Z,7.73
2019-04-04T15:58:11.306Z,7.77
2019-04-04T16:00:38.767Z,7.23
2019-04-04T16:03:06.177Z,8.30
2019-04-04T16:05:33.618Z,6.83
2019-04-04T16:08:01.035Z,6.40
2019-04-04T16:10:28.457Z,5.95
2019-04-04T16:12:55.942Z,5.50
2019-04-04T16:15:23.345Z,7.33
2019-04-04T16:17:50.824Z,5.30
2019-04-04T16:20:18.243Z,5.40
2019-04-04T16:22:45.670Z,5.87
2019-04-04T16:25:13.077Z,6.93
2019-04-04T16:27:40.511Z,12.10
2019-04-04T16:30:08.334Z,5.87
2019-04-04T16:32:35.337Z,5.80
2019-04-04T16:35:02.771Z,6.47
2019-04-04T16:37:30.210Z,5.60
2019-04-04T16:40:08.241Z,5.20
2019-04-04T16:42:25.088Z,9.03
2019-04-04T16:44:52.509Z,4.93
2019-04-04T16:47:19.932Z,5.40
2019-04-04T16:49:47.755Z,4.97
2019-04-04T16:52:15.158Z,7.37
2019-04-04T16:54:42.581Z,5.20
2019-04-04T16:57:10.001Z,5.53
2019-04-04T16:59:37.446Z,5.40
2019-04-04T17:02:04.892Z,5.57
2019-04-04T17:04:32.296Z,6.53
2019-04-04T17:06:59.759Z,7.50
2019-04-04T17:09:27.195Z,9.37
2019-04-04T17:11:54.604Z,9.53
2019-04-04T17:14:22.027Z,8.77
2019-04-04T17:16:49.444Z,9.53
2019-04-04T17:19:16.885Z,8.40
2019-04-04T17:21:44.320Z,9.00
2019-04-04T17:24:11.776Z,10.30
2019-04-04T17:26:39.174Z,8.07
2019-04-04T17:29:06.609Z,8.73
2019-04-04T17:31:34.048Z,10.00
2019-04-04T17:34:01.943Z,8.07
2019-04-04T17:36:28.913Z,10.63
2019-04-04T17:38:56.339Z,8.07
2019-04-04T17:41:23.847Z,9.33
2019-04-04T17:43:51.183Z,8.17
2019-04-04T17:46:18.657Z,10.87
2019-04-04T17:48:46.191Z,11.77
2019-04-04T17:51:13.603Z,7.87
2019-04-04T17:53:41.056Z,7.57
2019-04-04T17:56:08.570Z,7.53
2019-04-04T17:58:35.946Z,11.97
2019-04-04T18:01:03.402Z,9.40
2019-04-04T18:03:30.811Z,8.67
2019-04-04T18:05:58.317Z,9.13
2019-04-04T18:08:25.716Z,8.53
2019-04-04T18:10:53.146Z,10.87
2019-04-04T18:13:20.629Z,9.13
2019-04-04T18:15:48.119Z,10.23
2019-04-04T18:18:15.549Z,8.17
2019-04-04T18:20:43.013Z,8.77
2019-04-04T18:23:10.431Z,7.73
2019-04-04T18:25:37.867Z,8.53
2019-04-04T18:28:05.340Z,10.27
2019-04-04T18:30:32.766Z,7.80
2019-04-04T18:33:00.280Z,14.93
2019-04-04T18:35:27.784Z,11.67
2019-04-04T18:37:55.450Z,10.53
2019-04-04T18:40:22.859Z,8.77
2019-04-04T18:42:53.649Z,9.77
2019-04-04T18:45:17.836Z,7.43
2019-04-04T18:47:45.364Z,8.93
2019-04-04T18:50:12.885Z,7.93
2019-04-04T18:52:40.379Z,14.23
2019-04-04T18:55:18.980Z,6.97
2019-04-04T18:57:35.300Z,6.97
2019-04-04T19:00:02.714Z,9.50
2019-04-04T19:02:30.195Z,7.77
2019-04-04T19:04:57.657Z,10.53
2019-04-04T19:07:25.067Z,8.83
2019-04-04T19:09:52.504Z,9.00
2019-04-04T19:12:19.963Z,7.53
2019-04-04T19:14:47.450Z,8.23
2019-04-04T19:17:14.863Z,8.00
2019-04-04T19:19:42.324Z,7.50
2019-04-04T19:22:09.766Z,7.23
2019-04-04T19:24:37.289Z,7.93
2019-04-04T19:27:04.732Z,7.90
2019-04-04T19:29:32.173Z,10.53
2019-04-04T19:32:00.977Z,8.13
2019-04-04T19:34:28.415Z,11.93
2019-04-04T19:36:55.895Z,11.40
2019-04-04T19:39:23.324Z,11.37
2019-04-04T19:41:50.877Z,9.90
2019-04-04T19:44:18.319Z,10.30
2019-04-04T19:46:45.869Z,8.50
2019-04-04T19:49:13.289Z,8.07
2019-04-04T19:51:40.725Z,12.83
2019-04-04T19:54:08.177Z,9.70
2019-04-04T19:56:35.697Z,8.30
2019-04-04T19:59:03.141Z,8.70
2019-04-04T20:01:30.644Z,8.73
2019-04-04T20:03:58.112Z,8.40
2019-04-04T20:06:25.524Z,10.20
2019-04-04T20:08:53.703Z,7.90
2019-04-04T20:11:20.446Z,9.37
2019-04-04T20:13:47.926Z,10.23
2019-04-04T20:16:15.368Z,10.97
2019-04-04T20:18:42.810Z,9.10
2019-04-04T20:21:10.263Z,10.47
2019-04-04T20:23:37.730Z,9.63
2019-04-04T20:26:05.185Z,7.37
2019-04-04T20:28:32.604Z,8.73
2019-04-04T20:31:00.092Z,11.00
2019-04-04T20:33:27.516Z,9.30
2019-04-04T20:35:54.944Z,14.53
2019-04-04T20:38:22.459Z,9.50
2019-04-04T20:40:50.102Z,8.87
2019-04-04T20:43:17.538Z,12.10
2019-04-04T20:45:44.970Z,8.20
2019-04-04T20:48:12.426Z,11.73
2019-04-04T20:50:39.843Z,10.50
2019-04-04T20:53:07.559Z,8.30
2019-04-04T20:55:34.969Z,8.60
2019-04-04T20:58:02.415Z,11.10
2019-04-04T21:00:29.831Z,10.07
2019-04-04T21:02:57.312Z,12.30
2019-04-04T21:05:24.710Z,13.63
2019-04-04T21:07:52.187Z,11.33
2019-04-04T21:10:19.656Z,10.77
2019-04-04T21:12:47.083Z,21.10
2019-04-04T21:15:14.587Z,10.63
2019-04-04T21:17:42.011Z,12.97
2019-04-04T21:20:09.450Z,9.60
2019-04-04T21:22:36.862Z,9.57
2019-04-04T21:25:04.312Z,11.00
2019-04-04T21:27:31.801Z,11.57
2019-04-04T21:29:59.241Z,11.57
2019-04-04T21:32:26.668Z,10.27
2019-04-04T21:34:54.143Z,13.57
2019-04-04T21:37:21.637Z,11.63
2019-04-04T21:39:49.047Z,10.90
2019-04-04T21:42:16.523Z,13.07
2019-04-04T21:44:43.905Z,10.67
2019-04-04T21:47:11.332Z,9.57
2019-04-04T21:49:38.755Z,10.23
2019-04-04T21:52:06.163Z,11.17
2019-04-04T21:54:33.603Z,8.80
2019-04-04T21:57:01.010Z,10.30
2019-04-04T21:59:28.476Z,9.37
2019-04-04T22:01:55.967Z,11.67
2019-04-04T22:04:23.432Z,9.63
2019-04-04T22:06:50.953Z,9.97
2019-04-04T22:09:18.407Z,10.40
2019-04-04T22:11:45.872Z,9.37
2019-04-04T22:14:21.568Z,10.43
2019-04-04T22:16:40.837Z,9.83
2019-04-04T22:19:08.343Z,10.57
2019-04-04T22:21:35.806Z,9.73
2019-04-04T22:24:03.322Z,12.73
2019-04-04T22:26:30.778Z,11.30
2019-04-04T22:28:58.234Z,11.93
2019-04-04T22:31:25.728Z,12.80
2019-04-04T22:33:53.202Z,11.83
2019-04-04T22:36:20.709Z,13.07
2019-04-04T22:38:48.174Z,12.73
2019-04-04T22:41:15.675Z,11.93
2019-04-04T22:43:43.143Z,10.70
2019-04-04T22:46:10.597Z,9.47
2019-04-04T22:48:38.102Z,11.13
2019-04-04T22:51:05.621Z,10.07
2019-04-04T22:53:33.073Z,11.93
2019-04-04T22:56:00.576Z,11.00
2019-04-04T22:58:28.935Z,11.17
2019-04-04T23:00:55.530Z,9.73
2019-04-04T23:03:22.987Z,10.30
2019-04-04T23:05:50.512Z,10.27
2019-04-04T23:08:17.953Z,10.67
2019-04-04T23:10:45.419Z,11.77
2019-04-04T23:13:14.305Z,12.07
2019-04-04T23:15:41.735Z,10.67
2019-04-04T23:18:09.235Z,10.83
2019-04-04T23:20:36.686Z,11.10
2019-04-04T23:23:04.175Z,13.43
2019-04-04T23:25:31.646Z,12.70
2019-04-04T23:27:59.155Z,9.83
2019-04-04T23:30:26.610Z,12.07
2019-04-04T23:32:54.068Z,12.23
2019-04-04T23:35:21.562Z,10.77
2019-04-04T23:37:49.023Z,11.60
2019-04-04T23:40:16.527Z,10.47
2019-04-04T23:42:43.983Z,10.47
2019-04-04T23:45:11.488Z,9.20
2019-04-04T23:47:43.054Z,11.17
2019-04-04T23:50:06.455Z,12.60
2019-04-04T23:52:33.930Z,12.57
2019-04-04T23:55:01.445Z,12.37
2019-04-04T23:57:28.927Z,12.70
2019-04-04T23:59:56.450Z,12.17
